createdAt,value
2022-12-28T00:01:40.354Z,6.09
2022-12-28T00:04:06.662Z,6.12
2022-12-28T00:06:32.957Z,6.13
2022-12-28T00:09:00.903Z,6.17
2022-12-28T00:11:31.035Z,6.14
2022-12-28T00:13:58.877Z,6.14
2022-12-28T00:16:26.393Z,6.11
2022-12-28T00:18:52.919Z,6.13
2022-12-28T00:21:19.220Z,6.17
2022-12-28T00:23:48.015Z,6.09
2022-12-28T00:26:15.712Z,6.13
2022-12-28T00:28:42.023Z,6.19
2022-12-28T00:31:08.363Z,6.16
2022-12-28T00:33:34.666Z,6.16
2022-12-28T00:36:01.882Z,6.21
2022-12-28T00:38:28.583Z,6.16
2022-12-28T00:40:54.895Z,6.21
2022-12-28T00:43:22.710Z,6.17
2022-12-28T00:45:49.304Z,6.17
2022-12-28T00:48:16.181Z,6.34
2022-12-28T00:50:42.913Z,6.28
2022-12-28T00:53:09.648Z,6.38
2022-12-28T00:55:35.979Z,6.27
2022-12-28T00:58:03.007Z,6.23
2022-12-28T01:00:31.077Z,6.22
2022-12-28T01:02:57.961Z,6.24
2022-12-28T01:05:24.648Z,6.22
2022-12-28T01:07:50.965Z,6.25
2022-12-28T01:10:17.264Z,6.29
2022-12-28T01:12:43.678Z,6.35
2022-12-28T01:15:10.994Z,6.34
2022-12-28T01:17:39.018Z,6.38
2022-12-28T01:20:06.147Z,6.40
2022-12-28T01:22:32.450Z,6.35
2022-12-28T01:24:58.817Z,6.44
2022-12-28T01:27:25.123Z,6.38
2022-12-28T01:29:51.424Z,6.45
2022-12-28T01:32:17.729Z,6.45
2022-12-28T01:34:45.421Z,6.51
2022-12-28T01:37:11.755Z,6.50
2022-12-28T01:39:38.065Z,6.56
2022-12-28T01:42:04.568Z,6.57
2022-12-28T01:44:42.662Z,6.51
2022-12-28T01:47:12.112Z,6.61
2022-12-28T01:49:40.362Z,6.79
2022-12-28T01:52:09.897Z,6.82
2022-12-28T01:54:38.314Z,6.83
2022-12-28T01:57:04.707Z,6.78
2022-12-28T01:59:32.473Z,6.81
2022-12-28T02:01:59.342Z,6.81
2022-12-28T02:04:26.463Z,6.84
2022-12-28T02:06:53.030Z,6.89
2022-12-28T02:09:21.713Z,6.95
2022-12-28T02:11:48.302Z,6.97
2022-12-28T02:14:15.159Z,6.95
2022-12-28T02:16:41.729Z,7.01
2022-12-28T02:19:09.532Z,6.99
2022-12-28T02:21:42.638Z,7.08
2022-12-28T02:24:30.437Z,7.19
2022-12-28T02:27:01.601Z,7.21
2022-12-28T02:29:49.271Z,7.20
2022-12-28T02:32:22.933Z,7.27
2022-12-28T02:34:55.065Z,7.22
2022-12-28T02:37:24.409Z,7.26
2022-12-28T02:39:53.475Z,7.26
2022-12-28T02:42:20.784Z,7.30
2022-12-28T02:44:48.421Z,7.29
2022-12-28T02:47:16.078Z,7.34
2022-12-28T02:49:42.453Z,7.43
2022-12-28T02:52:13.693Z,7.27
2022-12-28T02:54:54.862Z,7.31
2022-12-28T02:57:27.163Z,7.28
2022-12-28T03:00:00.261Z,7.38
2022-12-28T03:02:36.096Z,7.37
2022-12-28T03:05:11.091Z,7.38
2022-12-28T03:07:42.241Z,7.38
2022-12-28T03:10:11.347Z,7.41
2022-12-28T03:12:39.679Z,7.41
2022-12-28T03:15:09.526Z,7.44
2022-12-28T03:17:37.964Z,7.46
2022-12-28T03:20:07.413Z,7.43
2022-12-28T03:22:34.890Z,7.43
2022-12-28T03:25:02.462Z,7.44
2022-12-28T03:27:30.390Z,7.38
2022-12-28T03:30:00.364Z,7.43
2022-12-28T03:32:28.074Z,7.48
2022-12-28T03:34:54.461Z,7.47
2022-12-28T03:37:24.760Z,7.45
2022-12-28T03:39:53.017Z,7.50
2022-12-28T03:42:28.899Z,7.42
2022-12-28T03:45:00.409Z,7.40
2022-12-28T03:47:29.010Z,7.43
2022-12-28T03:49:55.677Z,7.44
2022-12-28T03:52:21.994Z,7.36
2022-12-28T03:54:48.309Z,7.34
2022-12-28T03:57:14.638Z,7.39
2022-12-28T03:59:40.937Z,7.35
2022-12-28T04:02:07.347Z,7.38
2022-12-28T04:04:35.128Z,7.32
2022-12-28T04:07:01.434Z,7.29
2022-12-28T04:09:27.754Z,7.30
2022-12-28T04:11:54.070Z,7.32
2022-12-28T04:14:20.399Z,7.35
2022-12-28T04:16:46.719Z,7.30
2022-12-28T04:19:13.042Z,7.29
2022-12-28T04:21:40.717Z,7.30
2022-12-28T04:24:07.125Z,7.32
2022-12-28T04:26:33.403Z,7.38
2022-12-28T04:28:59.729Z,7.44
2022-12-28T04:31:26.052Z,7.41
2022-12-28T04:33:52.384Z,7.37
2022-12-28T04:36:18.665Z,7.44
2022-12-28T04:38:46.355Z,7.52
2022-12-28T04:41:12.669Z,7.51
2022-12-28T04:43:39.412Z,7.50
2022-12-28T04:46:07.102Z,7.51
2022-12-28T04:48:34.119Z,7.52
2022-12-28T04:51:05.510Z,7.53
2022-12-28T04:53:31.800Z,7.68
2022-12-28T04:56:03.942Z,7.62
2022-12-28T04:58:30.246Z,7.59
2022-12-28T05:01:01.554Z,7.59
2022-12-28T05:03:27.951Z,7.64
2022-12-28T05:05:54.291Z,7.67
2022-12-28T05:08:20.614Z,7.66
2022-12-28T05:10:46.909Z,7.65
2022-12-28T05:13:14.535Z,7.65
2022-12-28T05:15:40.827Z,7.69
2022-12-28T05:18:07.145Z,7.71
2022-12-28T05:20:33.464Z,7.77
2022-12-28T05:22:59.788Z,7.70
2022-12-28T05:25:26.131Z,7.77
2022-12-28T05:27:54.412Z,7.76
2022-12-28T05:30:22.049Z,7.83
2022-12-28T05:32:48.359Z,7.77
2022-12-28T05:35:14.680Z,7.73
2022-12-28T05:37:41.028Z,7.73
2022-12-28T05:40:07.918Z,7.75
2022-12-28T05:42:34.908Z,7.90
2022-12-28T05:45:01.187Z,7.82
2022-12-28T05:47:28.848Z,7.87
2022-12-28T05:49:55.169Z,7.79
2022-12-28T05:52:21.497Z,7.88
2022-12-28T05:54:47.819Z,7.90
2022-12-28T05:57:14.125Z,7.88
2022-12-28T05:59:40.435Z,7.89
2022-12-28T06:02:06.790Z,8.00
2022-12-28T06:04:34.543Z,7.96
2022-12-28T06:07:00.849Z,7.91
2022-12-28T06:09:27.196Z,7.95
2022-12-28T06:11:53.477Z,7.99
2022-12-28T06:14:19.748Z,8.02
2022-12-28T06:16:46.128Z,8.00
2022-12-28T06:19:12.764Z,8.08
2022-12-28T06:21:40.479Z,8.08
2022-12-28T06:24:07.712Z,8.03
2022-12-28T06:26:35.287Z,8.09
2022-12-28T06:29:01.702Z,8.19
2022-12-28T06:31:29.678Z,8.15
2022-12-28T06:33:56.687Z,8.11
2022-12-28T06:36:23.782Z,8.04
2022-12-28T06:38:52.284Z,8.10
2022-12-28T06:41:19.664Z,8.06
2022-12-28T06:43:46.445Z,8.03
2022-12-28T06:46:13.373Z,8.02
2022-12-28T06:48:40.345Z,8.00
2022-12-28T06:51:07.918Z,8.02
2022-12-28T06:53:35.384Z,7.99
2022-12-28T06:56:03.967Z,7.98
2022-12-28T06:58:30.594Z,7.97
2022-12-28T07:00:57.870Z,8.10
2022-12-28T07:03:24.285Z,8.04
2022-12-28T07:05:50.833Z,8.02
2022-12-28T07:08:17.907Z,7.99
2022-12-28T07:10:44.217Z,8.02
2022-12-28T07:13:11.862Z,8.11
2022-12-28T07:15:38.147Z,8.10
2022-12-28T07:18:04.463Z,8.15
2022-12-28T07:20:34.182Z,8.06
2022-12-28T07:23:03.403Z,8.15
2022-12-28T07:25:29.723Z,8.09
2022-12-28T07:27:56.030Z,8.05
2022-12-28T07:30:23.691Z,8.11
2022-12-28T07:32:49.984Z,8.14
2022-12-28T07:35:16.315Z,8.13
2022-12-28T07:37:42.655Z,8.15
2022-12-28T07:40:09.697Z,8.15
2022-12-28T07:42:35.981Z,8.18
2022-12-28T07:45:02.434Z,8.15
2022-12-28T07:47:30.046Z,8.18
2022-12-28T07:49:56.368Z,8.13
2022-12-28T07:52:22.653Z,8.23
2022-12-28T07:54:48.945Z,8.21
2022-12-28T07:57:15.262Z,8.21
2022-12-28T07:59:41.598Z,8.22
2022-12-28T08:02:08.801Z,8.24
2022-12-28T08:04:36.537Z,8.25
2022-12-28T08:07:02.867Z,8.26
2022-12-28T08:09:29.155Z,8.26
2022-12-28T08:11:55.485Z,8.31
2022-12-28T08:14:21.796Z,8.37
2022-12-28T08:16:48.082Z,8.29
2022-12-28T08:19:14.508Z,8.28
2022-12-28T08:21:43.122Z,8.33
2022-12-28T08:24:12.625Z,8.30
2022-12-28T08:26:39.671Z,8.37
2022-12-28T08:29:06.907Z,8.31
2022-12-28T08:31:34.199Z,8.29
2022-12-28T08:34:01.911Z,8.39
2022-12-28T08:36:28.236Z,8.47
2022-12-28T08:38:55.990Z,8.42
2022-12-28T08:41:23.106Z,8.46
2022-12-28T08:43:49.874Z,8.44
2022-12-28T08:46:17.343Z,8.48
2022-12-28T08:48:44.731Z,8.54
2022-12-28T08:51:11.667Z,8.51
2022-12-28T08:53:38.013Z,8.53
2022-12-28T08:56:07.186Z,8.55
2022-12-28T08:58:33.969Z,8.54
2022-12-28T09:01:05.162Z,8.51
2022-12-28T09:03:31.703Z,8.58
2022-12-28T09:05:58.027Z,8.66
2022-12-28T09:08:24.347Z,8.62
2022-12-28T09:10:50.677Z,8.56
2022-12-28T09:13:18.313Z,8.62
2022-12-28T09:15:44.666Z,8.58
2022-12-28T09:18:10.977Z,8.59
2022-12-28T09:20:37.282Z,8.55
2022-12-28T09:23:03.564Z,8.57
2022-12-28T09:25:29.865Z,8.56
2022-12-28T09:27:59.472Z,8.61
2022-12-28T09:30:27.412Z,8.53
2022-12-28T09:32:53.977Z,8.66
2022-12-28T09:35:20.309Z,8.68
2022-12-28T09:37:46.601Z,8.70
2022-12-28T09:40:12.917Z,8.72
2022-12-28T09:42:41.414Z,8.74
2022-12-28T09:45:09.031Z,8.73
2022-12-28T09:47:39.879Z,8.77
2022-12-28T09:50:17.020Z,8.90
2022-12-28T09:52:50.022Z,8.87
2022-12-28T09:55:17.810Z,8.85
2022-12-28T09:57:45.335Z,8.79
2022-12-28T10:00:16.034Z,8.79
2022-12-28T10:02:45.350Z,8.85
2022-12-28T10:05:11.774Z,8.83
2022-12-28T10:07:38.048Z,8.87
2022-12-28T10:10:04.930Z,8.90
2022-12-28T10:12:31.252Z,8.87
2022-12-28T10:14:58.746Z,8.86
2022-12-28T10:17:26.870Z,8.88
2022-12-28T10:19:56.353Z,8.98
2022-12-28T10:22:23.989Z,8.94
2022-12-28T10:24:50.786Z,8.93
2022-12-28T10:27:20.517Z,8.96
2022-12-28T10:29:46.823Z,9.05
2022-12-28T10:32:13.161Z,9.02
2022-12-28T10:34:54.419Z,9.00
2022-12-28T10:37:23.746Z,9.00
2022-12-28T10:39:52.154Z,9.03
2022-12-28T10:42:21.027Z,9.06
2022-12-28T10:44:48.370Z,9.04
2022-12-28T10:47:16.945Z,9.09
2022-12-28T10:50:02.876Z,9.06
2022-12-28T10:52:36.468Z,9.08
2022-12-28T10:58:26.926Z,9.19
2022-12-28T11:00:35.486Z,9.13
2022-12-28T11:03:16.652Z,9.19
2022-12-28T11:03:21.934Z,9.12
2022-12-28T11:05:43.967Z,9.27
2022-12-28T11:08:13.507Z,9.25
2022-12-28T11:10:39.918Z,9.22
2022-12-28T11:13:18.380Z,9.21
2022-12-28T11:15:47.847Z,9.17
2022-12-28T11:18:15.200Z,9.18
2022-12-28T11:20:42.930Z,9.15
2022-12-28T11:23:12.480Z,9.16
2022-12-28T11:25:40.928Z,9.21
2022-12-28T11:28:12.118Z,9.27
2022-12-28T11:30:38.402Z,9.26
2022-12-28T11:33:05.497Z,9.22
2022-12-28T11:35:33.643Z,9.24
2022-12-28T11:38:02.263Z,9.33
2022-12-28T11:40:55.822Z,9.39
2022-12-28T11:43:49.908Z,9.45
2022-12-28T11:46:35.090Z,9.43
2022-12-28T11:49:01.729Z,9.40
2022-12-28T11:51:29.068Z,9.45
2022-12-28T11:53:56.795Z,9.43
2022-12-28T11:56:23.789Z,9.41
2022-12-28T11:59:03.163Z,9.41
2022-12-28T12:01:47.956Z,9.44
2022-12-28T12:04:27.244Z,9.39
2022-12-28T12:07:06.391Z,9.40
2022-12-28T12:09:41.031Z,9.42
2022-12-28T12:12:22.259Z,9.44
2022-12-28T12:14:54.854Z,9.43
2022-12-28T12:17:25.493Z,9.40
2022-12-28T12:19:53.279Z,9.39
2022-12-28T12:22:22.232Z,9.52
2022-12-28T12:24:50.707Z,9.44
2022-12-28T12:27:19.303Z,9.41
2022-12-28T12:29:49.202Z,9.47
2022-12-28T12:32:21.198Z,9.45
2022-12-28T12:34:50.663Z,9.49
2022-12-28T12:37:25.074Z,9.47
2022-12-28T12:40:02.357Z,9.44
2022-12-28T12:42:34.708Z,9.44
2022-12-28T12:45:05.499Z,9.50
2022-12-28T12:47:45.645Z,9.48
2022-12-28T12:50:18.245Z,9.50
2022-12-28T12:52:52.293Z,9.53
2022-12-28T12:55:23.171Z,9.49
2022-12-28T12:57:53.938Z,9.59
2022-12-28T13:00:21.065Z,9.52
2022-12-28T13:03:09.756Z,9.57
2022-12-28T13:05:37.549Z,9.56
2022-12-28T13:08:04.454Z,9.58
2022-12-28T13:10:33.511Z,9.58
2022-12-28T13:13:01.786Z,9.60
2022-12-28T13:15:28.808Z,9.61
2022-12-28T13:18:11.437Z,9.66
2022-12-28T13:20:53.602Z,9.61
2022-12-28T13:23:21.351Z,9.65
2022-12-28T13:25:49.786Z,9.61
2022-12-28T13:28:19.738Z,9.63
2022-12-28T13:30:54.766Z,9.58
2022-12-28T13:33:21.427Z,9.62
2022-12-28T13:35:47.702Z,9.61
2022-12-28T13:38:16.707Z,9.73
2022-12-28T13:40:49.137Z,9.70
2022-12-28T13:43:41.157Z,9.77
2022-12-28T13:46:10.192Z,9.68
2022-12-28T13:48:38.197Z,9.68
2022-12-28T13:51:08.453Z,9.73
2022-12-28T13:53:36.324Z,9.80
2022-12-28T13:56:04.521Z,9.73
2022-12-28T13:58:32.250Z,9.71
2022-12-28T14:01:00.542Z,9.70
2022-12-28T14:03:27.428Z,9.70
2022-12-28T14:05:56.060Z,9.78
2022-12-28T14:08:22.790Z,9.76
2022-12-28T14:10:50.759Z,9.74
2022-12-28T14:13:17.758Z,9.83
2022-12-28T14:15:44.349Z,9.83
2022-12-28T14:18:13.958Z,9.74
2022-12-28T14:20:46.698Z,9.74
2022-12-28T14:23:19.514Z,9.67
2022-12-28T14:25:45.827Z,9.73
2022-12-28T14:28:18.323Z,9.77
2022-12-28T14:30:50.811Z,9.73
2022-12-28T14:33:24.435Z,9.72
2022-12-28T14:35:53.369Z,9.74
2022-12-28T14:38:21.694Z,9.75
2022-12-28T14:40:52.799Z,9.84
2022-12-28T14:43:23.043Z,9.84
2022-12-28T14:46:04.920Z,9.90
2022-12-28T14:48:35.859Z,9.89
2022-12-28T14:51:03.701Z,9.87
2022-12-28T14:53:30.448Z,9.89
2022-12-28T14:55:59.472Z,9.85
2022-12-28T14:58:28.911Z,9.88
2022-12-28T15:00:56.746Z,9.84
2022-12-28T15:03:23.594Z,9.89
2022-12-28T15:05:50.771Z,9.81
2022-12-28T15:08:17.354Z,9.78
2022-12-28T15:10:47.489Z,9.78
2022-12-28T15:13:13.899Z,9.76
2022-12-28T15:15:41.580Z,9.81
2022-12-28T15:18:08.040Z,9.77
2022-12-28T15:20:35.528Z,9.79
2022-12-28T15:23:01.850Z,9.87
2022-12-28T15:25:32.411Z,9.84
2022-12-28T15:27:58.775Z,9.76
2022-12-28T15:30:29.216Z,9.80
2022-12-28T15:32:57.185Z,9.78
2022-12-28T15:35:23.499Z,9.80
2022-12-28T15:37:49.809Z,9.76
2022-12-28T15:40:16.239Z,9.83
2022-12-28T15:42:43.976Z,9.80
2022-12-28T15:45:10.449Z,9.83
2022-12-28T15:47:36.753Z,9.83
2022-12-28T15:50:05.064Z,9.84
2022-12-28T15:52:31.392Z,9.81
2022-12-28T15:54:57.734Z,9.84
2022-12-28T15:57:24.144Z,9.76
2022-12-28T15:59:50.474Z,9.75
2022-12-28T16:02:16.891Z,9.72
2022-12-28T16:04:43.284Z,9.69
2022-12-28T16:07:11.020Z,9.75
2022-12-28T16:09:37.343Z,9.72
2022-12-28T16:12:03.910Z,9.73
2022-12-28T16:14:30.245Z,9.70
2022-12-28T16:16:56.700Z,9.69
2022-12-28T16:19:23.094Z,9.65
2022-12-28T16:21:49.819Z,9.67
2022-12-28T16:24:17.505Z,9.64
2022-12-28T16:26:43.823Z,9.63
2022-12-28T16:29:10.147Z,9.62
2022-12-28T16:31:37.693Z,9.62
2022-12-28T16:34:04.868Z,9.60
2022-12-28T16:36:31.479Z,9.64
2022-12-28T16:38:58.202Z,9.66
2022-12-28T16:41:28.817Z,9.67
2022-12-28T16:44:00.491Z,9.61
2022-12-28T16:46:26.854Z,9.58
2022-12-28T16:48:53.150Z,9.55
2022-12-28T16:51:19.454Z,9.54
2022-12-28T16:53:45.743Z,9.65
2022-12-28T16:56:12.098Z,9.63
2022-12-28T16:58:39.768Z,9.64
2022-12-28T17:01:07.398Z,9.64
2022-12-28T17:03:34.377Z,9.69
2022-12-28T17:06:00.822Z,9.65
2022-12-28T17:08:27.145Z,9.64
2022-12-28T17:10:53.436Z,9.71
2022-12-28T17:13:19.717Z,9.63
2022-12-28T17:15:47.379Z,9.66
2022-12-28T17:18:13.786Z,9.71
2022-12-28T17:20:40.680Z,9.71
2022-12-28T17:23:07.446Z,9.77
2022-12-28T17:25:34.229Z,9.73
2022-12-28T17:28:00.807Z,9.75
2022-12-28T17:30:27.237Z,9.75
2022-12-28T17:32:54.931Z,9.72
2022-12-28T17:35:21.293Z,9.65
2022-12-28T17:37:47.579Z,9.79
2022-12-28T17:40:13.885Z,9.55
2022-12-28T17:42:40.201Z,9.46
2022-12-28T17:45:11.435Z,9.39
2022-12-28T17:47:38.363Z,9.47
2022-12-28T17:50:06.914Z,9.45
2022-12-28T17:52:33.259Z,9.33
2022-12-28T17:54:59.769Z,9.38
2022-12-28T17:57:26.067Z,9.32
2022-12-28T17:59:52.371Z,9.34
2022-12-28T18:02:18.801Z,9.39
2022-12-28T18:04:45.154Z,9.30
2022-12-28T18:07:12.818Z,9.31
2022-12-28T18:09:39.099Z,9.30
2022-12-28T18:12:05.530Z,9.32
2022-12-28T18:14:31.835Z,9.28
2022-12-28T18:16:58.300Z,9.24
2022-12-28T18:19:24.648Z,9.19
2022-12-28T18:21:50.943Z,9.19
2022-12-28T18:24:18.599Z,9.13
2022-12-28T18:26:44.939Z,9.27
2022-12-28T18:29:11.269Z,9.22
2022-12-28T18:31:37.671Z,9.17
2022-12-28T18:34:04.008Z,9.21
2022-12-28T18:36:30.355Z,9.23
2022-12-28T18:38:56.644Z,9.19
2022-12-28T18:41:27.726Z,9.27
2022-12-28T18:43:56.880Z,9.22
2022-12-28T18:46:23.298Z,9.17
2022-12-28T18:48:49.635Z,9.17
2022-12-28T18:51:16.832Z,9.27
2022-12-28T18:53:43.415Z,9.34
2022-12-28T18:56:10.925Z,9.34
2022-12-28T18:58:39.312Z,9.45
2022-12-28T19:01:07.079Z,9.42
2022-12-28T19:03:34.122Z,9.38
2022-12-28T19:06:03.113Z,9.43
2022-12-28T19:08:29.918Z,9.50
2022-12-28T19:10:56.238Z,9.55
2022-12-28T19:13:22.577Z,9.43
2022-12-28T19:15:50.365Z,9.44
2022-12-28T19:18:16.720Z,9.47
2022-12-28T19:20:43.013Z,9.45
2022-12-28T19:23:10.257Z,9.43
2022-12-28T19:25:38.650Z,9.60
2022-12-28T19:28:05.055Z,9.49
2022-12-28T19:30:31.629Z,9.50
2022-12-28T19:32:59.371Z,9.57
2022-12-28T19:35:25.670Z,9.58
2022-12-28T19:37:52.562Z,9.56
2022-12-28T19:40:18.863Z,9.52
2022-12-28T19:42:45.233Z,9.53
2022-12-28T19:45:11.575Z,9.50
2022-12-28T19:47:37.918Z,9.62
2022-12-28T19:50:05.982Z,9.58
2022-12-28T19:52:32.755Z,9.68
2022-12-28T19:55:01.964Z,9.69
2022-12-28T19:57:29.575Z,9.70
2022-12-28T19:59:55.885Z,9.74
2022-12-28T20:02:22.313Z,9.71
2022-12-28T20:04:48.640Z,9.82
2022-12-28T20:07:18.785Z,9.84
2022-12-28T20:09:45.092Z,9.89
2022-12-28T20:12:11.403Z,9.89
2022-12-28T20:14:37.720Z,9.90
2022-12-28T20:17:06.776Z,9.89
2022-12-28T20:19:33.074Z,9.91
2022-12-28T20:21:59.372Z,10.06
2022-12-28T20:24:27.100Z,10.01
2022-12-28T20:26:59.577Z,10.05
2022-12-28T20:29:27.700Z,10.07
2022-12-28T20:31:54.096Z,10.09
2022-12-28T20:34:20.433Z,10.07
2022-12-28T20:36:46.775Z,10.09
2022-12-28T20:39:13.111Z,10.07
2022-12-28T20:41:40.774Z,10.06
2022-12-28T20:44:08.167Z,10.14
2022-12-28T20:46:34.632Z,10.12
2022-12-28T20:49:01.007Z,10.19
2022-12-28T20:51:27.771Z,10.16
2022-12-28T20:53:54.231Z,10.20
2022-12-28T20:56:20.545Z,10.25
2022-12-28T20:58:48.483Z,10.27
2022-12-28T21:01:15.535Z,10.28
2022-12-28T21:03:41.979Z,10.27
2022-12-28T21:06:08.733Z,10.36
2022-12-28T21:08:35.415Z,10.38
2022-12-28T21:11:01.768Z,10.39
2022-12-28T21:13:28.223Z,10.39
2022-12-28T21:15:57.179Z,10.51
2022-12-28T21:18:26.689Z,10.43
2022-12-28T21:20:53.702Z,10.46
2022-12-28T21:23:20.033Z,10.45
2022-12-28T21:25:46.375Z,10.57
2022-12-28T21:28:12.665Z,10.60
2022-12-28T21:30:39.049Z,10.54
2022-12-28T21:33:06.748Z,10.54
2022-12-28T21:35:34.703Z,10.51
2022-12-28T21:38:01.373Z,10.63
2022-12-28T21:40:27.645Z,10.56
2022-12-28T21:42:53.933Z,10.53
2022-12-28T21:45:20.229Z,10.49
2022-12-28T21:47:46.528Z,10.55
2022-12-28T21:50:14.176Z,10.50
2022-12-28T21:52:40.487Z,10.62
2022-12-28T21:55:07.314Z,10.56
2022-12-28T21:57:33.636Z,10.55
2022-12-28T22:00:01.830Z,10.53
2022-12-28T22:02:28.614Z,10.51
2022-12-28T22:05:01.841Z,10.50
2022-12-28T22:07:31.263Z,10.46
2022-12-28T22:09:57.592Z,10.50
2022-12-28T22:12:24.361Z,10.52
2022-12-28T22:14:50.735Z,10.41
2022-12-28T22:17:17.029Z,10.41
2022-12-28T22:19:43.343Z,10.46
2022-12-28T22:22:09.673Z,10.42
2022-12-28T22:24:37.328Z,10.44
2022-12-28T22:27:03.747Z,10.41
2022-12-28T22:29:30.023Z,10.48
2022-12-28T22:31:56.404Z,10.56
2022-12-28T22:34:22.714Z,10.54
2022-12-28T22:36:49.037Z,10.56
2022-12-28T22:39:15.338Z,10.66
2022-12-28T22:41:42.954Z,10.59
2022-12-28T22:44:09.569Z,10.54
2022-12-28T22:46:35.947Z,10.58
2022-12-28T22:49:02.253Z,10.60
2022-12-28T22:51:28.581Z,10.65
2022-12-28T22:53:54.874Z,10.62
2022-12-28T22:56:21.275Z,10.71
2022-12-28T22:58:49.085Z,10.58
2022-12-28T23:01:16.645Z,10.68
2022-12-28T23:03:44.329Z,10.65
2022-12-28T23:06:11.746Z,10.62
2022-12-28T23:08:38.352Z,10.61
2022-12-28T23:11:05.579Z,10.68
2022-12-28T23:13:32.578Z,10.65
2022-12-28T23:16:00.853Z,10.72
2022-12-28T23:18:27.588Z,10.70
2022-12-28T23:20:53.905Z,10.69
2022-12-28T23:23:20.215Z,10.75
2022-12-28T23:25:46.548Z,10.80
2022-12-28T23:28:13.582Z,10.74
2022-12-28T23:30:41.974Z,10.77
2022-12-28T23:33:09.728Z,10.76
2022-12-28T23:35:36.039Z,10.76
2022-12-28T23:38:02.425Z,10.77
2022-12-28T23:40:28.755Z,10.76
2022-12-28T23:42:55.096Z,10.72
2022-12-28T23:45:21.719Z,10.67
2022-12-28T23:47:48.360Z,10.64
2022-12-28T23:50:16.413Z,10.61
2022-12-28T23:52:42.717Z,10.59
2022-12-28T23:55:09.653Z,10.56
2022-12-28T23:57:36.206Z,10.59
